Time;durP1;ratioP1;P1;durP2;ratioP2;P2;SDS_P1;SDS_P2;PMS_P1;PMS_P2;Temp;Humidity;BMP_temperature;BMP_pressure;BME280_temperature;BME280_humidity;BME280_pressure;Samples;Min_cycle;Max_cycle;Signal;HPM_P1;HPM_P2
2023/02/18 00:00:18;;;;;;;9.93;3.42;;;;;;;18.27;100.00;101375.63;4936269;29;20390;-72
2023/02/18 00:02:45;;;;;;;15.20;3.45;;;;;;;18.16;100.00;101371.72;4936216;29;20023;-72
2023/02/18 00:05:11;;;;;;;8.25;3.22;;;;;;;18.15;100.00;101370.13;4936240;29;20032;-72
2023/02/18 00:07:39;;;;;;;8.05;2.65;;;;;;;18.17;100.00;101365.03;4935791;29;20032;-71
2023/02/18 00:10:08;;;;;;;6.20;2.50;;;;;;;18.02;100.00;101371.28;4936142;29;20027;-71
2023/02/18 00:12:33;;;;;;;13.40;3.03;;;;;;;18.00;100.00;101365.31;4935740;29;20047;-72
2023/02/18 00:14:59;;;;;;;11.13;2.83;;;;;;;17.99;100.00;101338.81;4936132;29;20106;-73
2023/02/18 00:17:25;;;;;;;10.23;3.30;;;;;;;18.01;100.00;101353.09;4935779;29;20084;-72
2023/02/18 00:19:50;;;;;;;11.68;3.50;;;;;;;17.95;100.00;101355.28;4935858;29;20063;-72
2023/02/18 00:22:16;;;;;;;7.82;2.40;;;;;;;17.95;100.00;101357.25;4914950;29;20066;-73
2023/02/18 00:24:42;;;;;;;11.00;2.60;;;;;;;17.98;100.00;101349.06;4905582;29;20041;-71
2023/02/18 00:27:08;;;;;;;8.45;2.50;;;;;;;17.88;100.00;101366.13;4917109;29;20376;-71
2023/02/18 00:29:34;;;;;;;9.48;2.58;;;;;;;17.93;100.00;101357.59;4899776;29;20414;-71
2023/02/18 00:32:00;;;;;;;9.82;2.55;;;;;;;17.94;100.00;101352.88;4916847;29;20032;-71
2023/02/18 00:34:25;;;;;;;6.63;2.42;;;;;;;18.00;100.00;101346.75;4929289;29;20050;-72
2023/02/18 00:36:51;;;;;;;6.05;2.45;;;;;;;17.87;100.00;101347.13;4935321;29;20090;-72
2023/02/18 00:39:17;;;;;;;5.30;2.17;;;;;;;17.84;100.00;101342.31;4918498;29;20372;-73
2023/02/18 00:41:43;;;;;;;8.65;2.63;;;;;;;18.22;100.00;101348.22;4935397;29;20111;-72
2023/02/18 00:44:10;;;;;;;6.22;2.20;;;;;;;18.18;100.00;101354.78;4908552;29;20032;-70
2023/02/18 00:46:36;;;;;;;8.23;2.67;;;;;;;17.90;100.00;101351.94;4916597;29;20028;-71
2023/02/18 00:49:03;;;;;;;4.53;2.03;;;;;;;18.11;100.00;101352.59;4914998;29;20510;-71
2023/02/18 00:51:29;;;;;;;7.22;2.28;;;;;;;18.11;100.00;101324.94;4916453;29;20063;-72
2023/02/18 00:53:55;;;;;;;4.32;1.90;;;;;;;18.19;100.00;101346.13;4924272;29;20098;-72
2023/02/18 00:56:21;;;;;;;6.15;2.30;;;;;;;17.80;100.00;101344.13;4934569;29;20032;-72
2023/02/18 00:58:47;;;;;;;7.20;1.88;;;;;;;18.06;100.00;101335.44;4935336;29;20034;-72
2023/02/18 01:01:13;;;;;;;7.20;1.88;;;;;;;17.97;100.00;101339.16;4935368;29;20032;-72
2023/02/18 01:03:40;;;;;;;4.10;2.08;;;;;;;17.88;100.00;101352.31;4935029;29;20031;-71
2023/02/18 01:06:07;;;;;;;3.65;2.03;;;;;;;17.97;100.00;101352.97;4917890;29;20050;-71
2023/02/18 01:08:33;;;;;;;5.18;2.03;;;;;;;17.90;100.00;101347.22;4918035;29;20062;-72
2023/02/18 01:11:00;;;;;;;5.28;2.33;;;;;;;17.96;100.00;101318.19;4935071;29;20103;-71
2023/02/18 01:13:26;;;;;;;6.82;1.85;;;;;;;17.80;100.00;101335.84;4934903;29;20107;-72
2023/02/18 01:15:52;;;;;;;4.80;2.00;;;;;;;18.05;100.00;101342.13;4934755;29;20087;-72
2023/02/18 01:18:18;;;;;;;10.75;2.58;;;;;;;17.98;100.00;101323.38;4935169;29;20035;-72
2023/02/18 01:20:45;;;;;;;5.40;2.05;;;;;;;18.02;100.00;101327.06;4934940;29;20487;-73
2023/02/18 01:23:11;;;;;;;4.40;1.73;;;;;;;17.70;100.00;101326.88;4934578;29;20070;-72
2023/02/18 01:25:38;;;;;;;4.75;1.95;;;;;;;17.80;100.00;101347.72;4915835;29;20036;-72
2023/02/18 01:28:06;;;;;;;5.20;1.98;;;;;;;17.89;100.00;101317.16;4916130;29;20063;-71
2023/02/18 01:30:31;;;;;;;4.05;2.10;;;;;;;17.80;100.00;101313.72;4916240;29;20091;-72
2023/02/18 01:32:57;;;;;;;4.78;2.08;;;;;;;17.78;100.00;101327.91;4916044;29;20032;-72
2023/02/18 01:35:24;;;;;;;2.17;1.63;;;;;;;17.83;100.00;101318.56;4916173;29;20035;-72
2023/02/18 01:37:50;;;;;;;5.07;2.47;;;;;;;17.79;100.00;101328.72;4935039;29;20525;-72
2023/02/18 01:40:20;;;;;;;3.30;1.95;;;;;;;17.28;100.00;101325.47;4937457;29;20114;-72
2023/02/18 01:42:46;;;;;;;;;;;;;;;17.31;100.00;101322.84;4939239;29;20059;-73
2023/02/18 01:45:45;;;;;;;2.60;1.60;;;;;;;17.59;100.00;101331.22;4921453;29;19957;-72
2023/02/18 01:48:17;;;;;;;2.05;1.73;;;;;;;17.73;100.00;101334.47;4938814;29;20031;-71
2023/02/18 01:50:47;;;;;;;1.58;1.40;;;;;;;17.43;100.00;101338.59;4938843;29;20051;-71
2023/02/18 01:53:17;;;;;;;3.72;1.40;;;;;;;17.36;100.00;101327.31;4920957;29;20039;-72
2023/02/18 01:55:43;;;;;;;3.40;1.40;;;;;;;17.74;100.00;101329.75;4912857;29;20054;-71
2023/02/18 01:58:11;;;;;;;2.15;0.90;;;;;;;17.46;100.00;101327.66;4938616;29;20498;-72
2023/02/18 02:00:37;;;;;;;3.67;1.20;;;;;;;17.56;100.00;101325.59;4935500;29;20554;-72
2023/02/18 02:03:03;;;;;;;4.47;1.13;;;;;;;17.81;100.00;101316.16;4927764;29;20107;-72
2023/02/18 02:05:32;;;;;;;2.38;1.17;;;;;;;17.72;100.00;101321.81;4919464;29;20028;-72
2023/02/18 02:07:59;;;;;;;1.88;1.00;;;;;;;17.37;100.00;101324.19;4902342;29;20035;-72
2023/02/18 02:10:40;;;;;;;1.60;0.93;;;;;;;17.56;100.00;101339.41;4919166;29;20036;-71
2023/02/18 02:13:25;;;;;;;1.17;0.70;;;;;;;17.59;100.00;101331.22;4919053;29;20123;-72
2023/02/18 02:16:10;;;;;;;1.17;0.93;;;;;;;17.59;100.00;101339.50;4918668;29;20036;-72
2023/02/18 02:18:39;;;;;;;1.80;0.95;;;;;;;17.63;100.00;101347.94;4902071;29;20032;-75
2023/02/18 02:21:07;;;;;;;1.35;0.73;;;;;;;17.64;100.00;101333.75;4919230;29;20558;-72
2023/02/18 02:24:10;;;;;;;0.68;0.55;;;;;;;17.51;100.00;101334.91;4919112;29;20428;-72
2023/02/18 02:26:53;;;;;;;0.77;0.60;;;;;;;17.59;100.00;101342.28;4919112;29;20083;-72
2023/02/18 02:29:37;;;;;;;0.90;0.50;;;;;;;17.55;100.00;101335.84;4928675;29;20032;-73
2023/02/18 02:32:12;;;;;;;1.38;0.60;;;;;;;17.42;100.00;101348.03;4918953;29;20165;-72
2023/02/18 02:34:37;;;;;;;1.15;0.45;;;;;;;17.47;100.00;101350.56;4918930;29;20036;-71
2023/02/18 02:37:09;;;;;;;3.03;0.57;;;;;;;17.34;100.00;101346.19;4918844;29;20038;-72
2023/02/18 02:39:43;;;;;;;0.80;0.50;;;;;;;17.41;100.00;101361.03;4937579;29;20119;-71
2023/02/18 02:42:23;;;;;;;2.85;0.50;;;;;;;17.53;100.00;101349.16;4937764;29;20020;-71
2023/02/18 02:45:00;;;;;;;0.95;0.60;;;;;;;17.61;100.00;101353.00;4920445;29;20036;-71
2023/02/18 02:47:34;;;;;;;2.63;0.80;;;;;;;17.64;100.00;101349.53;4937746;29;20050;-73
2023/02/18 02:50:26;;;;;;;1.60;0.60;;;;;;;17.69;100.00;101352.88;4937513;29;20035;-73
2023/02/18 02:52:59;;;;;;;3.47;0.88;;;;;;;17.70;100.00;101351.75;4932591;29;20031;-71
2023/02/18 02:55:24;;;;;;;1.42;0.70;;;;;;;17.52;100.00;101342.03;4916455;29;20375;-71
2023/02/18 02:57:52;;;;;;;2.75;0.55;;;;;;;17.55;100.00;101363.47;4937488;29;20042;-71
2023/02/18 03:00:37;;;;;;;3.65;0.80;;;;;;;17.69;100.00;101363.94;4937368;29;20078;-72
2023/02/18 03:03:12;;;;;;;2.22;0.95;;;;;;;17.46;100.00;101354.50;4937490;29;20031;-72
2023/02/18 03:06:15;;;;;;;5.82;1.23;;;;;;;17.35;100.00;101365.16;4937149;29;20375;-73
2023/02/18 03:08:58;;;;;;;3.20;1.00;;;;;;;17.01;100.00;101373.88;4920272;29;20039;-71
2023/02/18 03:11:28;;;;;;;5.60;1.20;;;;;;;17.26;100.00;101372.75;4936915;29;20102;-72
2023/02/18 03:14:23;;;;;;;6.47;2.08;;;;;;;17.02;100.00;101383.75;4916539;29;20504;-72
2023/02/18 03:17:18;;;;;;;7.13;1.98;;;;;;;17.13;100.00;101380.22;4910939;29;20036;-72
2023/02/18 03:20:05;;;;;;;6.85;1.60;;;;;;;16.94;100.00;101396.50;4919198;29;20043;-72
2023/02/18 03:22:37;;;;;;;6.18;1.80;;;;;;;17.16;100.00;101400.81;4918065;29;20565;-72
2023/02/18 03:25:04;;;;;;;4.53;1.98;;;;;;;17.31;100.00;101397.41;4918040;29;20078;-72
2023/02/18 03:27:45;;;;;;;8.77;2.28;;;;;;;17.60;100.00;101404.66;4917983;29;20035;-72
2023/02/18 03:30:36;;;;;;;11.27;2.63;;;;;;;17.61;100.00;101403.53;4917892;29;20028;-71
2023/02/18 03:33:05;;;;;;;5.95;2.63;;;;;;;17.32;100.00;101387.97;4917253;29;20046;-72
2023/02/18 03:35:31;;;;;;;7.15;1.90;;;;;;;17.45;100.00;101392.34;4932842;29;20105;-72
2023/02/18 03:38:01;;;;;;;11.65;2.53;;;;;;;17.20;100.00;101394.25;4936389;29;20031;-71
2023/02/18 03:40:29;;;;;;;10.18;2.78;;;;;;;17.52;100.00;101394.53;4919648;29;20071;-71
2023/02/18 03:42:57;;;;;;;9.43;2.25;;;;;;;17.47;100.00;101397.53;4936700;29;20379;-71
2023/02/18 03:45:24;;;;;;;10.18;3.35;;;;;;;17.45;100.00;101397.06;4922337;29;20032;-72
2023/02/18 03:47:49;;;;;;;10.32;2.80;;;;;;;17.55;100.00;101391.09;4917599;29;20031;-72
2023/02/18 03:50:15;;;;;;;10.75;2.63;;;;;;;17.28;100.00;101380.69;4917519;29;20098;-71
2023/02/18 03:52:41;;;;;;;11.63;3.53;;;;;;;17.40;100.00;101383.50;4917517;29;20505;-73
2023/02/18 03:55:08;;;;;;;9.07;3.63;;;;;;;17.31;100.00;101382.78;4928272;29;20039;-72
2023/02/18 03:57:33;;;;;;;12.35;2.35;;;;;;;17.37;100.00;101375.88;4919325;29;20028;-71
2023/02/18 03:59:59;;;;;;;7.45;2.75;;;;;;;17.61;100.00;101364.06;4936380;29;20478;-71
2023/02/18 04:02:25;;;;;;;13.50;3.65;;;;;;;17.01;100.00;101365.59;4935977;29;20031;-73
2023/02/18 04:04:50;;;;;;;14.10;3.80;;;;;;;16.96;100.00;101379.59;4918492;29;20051;-71
2023/02/18 04:07:16;;;;;;;9.32;2.53;;;;;;;17.09;100.00;101379.28;4936166;29;20034;-71
2023/02/18 04:09:42;;;;;;;13.45;3.20;;;;;;;17.11;100.00;101382.50;4919145;29;20035;-72
2023/02/18 04:12:07;;;;;;;12.57;2.63;;;;;;;16.73;100.00;101373.66;4935959;29;20576;-72
2023/02/18 04:14:33;;;;;;;10.57;2.33;;;;;;;16.81;100.00;101383.81;4935700;29;20028;-71
2023/02/18 04:17:00;;;;;;;10.68;2.55;;;;;;;16.94;100.00;101385.47;4935733;29;20123;-72
2023/02/18 04:19:26;;;;;;;10.80;2.88;;;;;;;16.99;100.00;101373.38;4918762;29;20035;-72
2023/02/18 04:21:51;;;;;;;10.45;2.78;;;;;;;16.95;100.00;101375.22;4936009;29;20036;-72
2023/02/18 04:24:17;;;;;;;8.38;2.60;;;;;;;16.78;100.00;101378.97;4917610;29;20024;-73
2023/02/18 04:26:43;;;;;;;10.02;2.33;;;;;;;17.00;100.00;101375.78;4918790;29;20386;-71
2023/02/18 04:29:08;;;;;;;14.00;2.20;;;;;;;16.98;100.00;101375.34;4935880;29;20064;-72
2023/02/18 04:31:34;;;;;;;8.18;2.42;;;;;;;16.57;100.00;101377.00;4935516;29;20027;-72
2023/02/18 04:34:00;;;;;;;10.90;2.80;;;;;;;16.94;100.00;101385.47;4935419;29;20035;-72
2023/02/18 04:36:26;;;;;;;12.20;3.42;;;;;;;16.71;100.00;101379.50;4918744;29;20186;-71
2023/02/18 04:38:51;;;;;;;12.23;2.70;;;;;;;16.90;100.00;101403.84;4935320;29;20051;-72
2023/02/18 04:41:17;;;;;;;10.95;2.55;;;;;;;16.86;100.00;101394.63;4935627;29;20035;-71
2023/02/18 04:43:43;;;;;;;10.65;2.53;;;;;;;16.89;100.00;101403.03;4924167;29;20032;-72
2023/02/18 04:46:08;;;;;;;15.20;3.60;;;;;;;16.76;100.00;101403.31;4916559;29;20032;-71
2023/02/18 04:48:34;;;;;;;13.20;4.10;;;;;;;17.15;100.00;101404.72;4916643;29;20047;-72
2023/02/18 04:51:00;;;;;;;15.27;3.17;;;;;;;16.98;100.00;101410.41;4916513;29;20036;-72
2023/02/18 04:53:25;;;;;;;12.48;2.97;;;;;;;16.75;100.00;101408.03;4916511;29;20032;-71
2023/02/18 04:55:53;;;;;;;10.00;3.35;;;;;;;16.67;100.00;101391.53;4916497;29;20035;-71
2023/02/18 04:58:20;;;;;;;12.18;3.92;;;;;;;16.87;100.00;101418.31;4916481;29;20047;-72
2023/02/18 05:00:46;;;;;;;21.17;3.35;;;;;;;16.69;100.00;101411.31;4916454;29;20479;-73
2023/02/18 05:03:12;;;;;;;8.93;3.25;;;;;;;16.35;100.00;101391.16;4916387;29;20039;-72
2023/02/18 05:05:40;;;;;;;14.52;3.95;;;;;;;16.91;100.00;101405.44;4916248;29;20387;-71
2023/02/18 05:08:07;;;;;;;17.40;4.80;;;;;;;16.64;100.00;101398.53;4916363;29;20032;-71
2023/02/18 05:10:33;;;;;;;14.23;3.70;;;;;;;16.83;100.00;101409.09;4916118;29;20032;-71
2023/02/18 05:12:59;;;;;;;15.90;4.22;;;;;;;16.65;100.00;101392.69;4916504;29;20036;-72
2023/02/18 05:15:25;;;;;;;14.43;3.83;;;;;;;16.63;100.00;101394.97;4915917;29;20431;-72
2023/02/18 05:17:51;;;;;;;12.85;3.28;;;;;;;16.71;100.00;101400.78;4916231;29;20502;-72
2023/02/18 05:20:17;;;;;;;12.95;3.30;;;;;;;16.78;100.00;101403.81;4916084;29;20097;-72
2023/02/18 05:22:42;;;;;;;16.40;3.80;;;;;;;16.44;100.00;101404.88;4916303;29;20032;-72
2023/02/18 05:25:08;;;;;;;12.00;2.78;;;;;;;16.44;100.00;101399.34;4916133;29;20030;-72
2023/02/18 05:27:34;;;;;;;16.02;3.35;;;;;;;16.76;100.00;101415.16;4899145;29;20032;-72
2023/02/18 05:30:00;;;;;;;10.38;2.78;;;;;;;16.77;100.00;101408.50;4916202;29;20104;-71
2023/02/18 05:32:25;;;;;;;10.85;3.78;;;;;;;16.73;100.00;101415.03;4916182;29;20559;-72
2023/02/18 05:34:51;;;;;;;10.80;2.83;;;;;;;16.72;100.00;101408.72;4916151;29;20092;-73
2023/02/18 05:37:17;;;;;;;10.52;3.25;;;;;;;16.49;100.00;101411.00;4916173;29;20364;-72
2023/02/18 05:39:44;;;;;;;16.45;3.38;;;;;;;16.54;100.00;101408.00;4916063;29;20042;-72
2023/02/18 05:42:09;;;;;;;15.55;4.18;;;;;;;16.51;100.00;101400.41;4916100;29;20446;-71
2023/02/18 05:44:35;;;;;;;14.75;3.00;;;;;;;16.61;100.00;101408.28;4902629;29;20051;-72
2023/02/18 05:47:04;;;;;;;12.80;3.17;;;;;;;16.51;100.00;101402.38;4934987;29;20103;-71
2023/02/18 05:49:31;;;;;;;13.73;3.65;;;;;;;16.44;100.00;101413.13;4934921;29;20035;-71
2023/02/18 05:51:57;;;;;;;12.45;3.25;;;;;;;16.55;100.00;101398.63;4917813;29;20032;-72
2023/02/18 05:54:23;;;;;;;12.20;3.65;;;;;;;16.58;100.00;101400.69;4934343;29;20071;-71
2023/02/18 05:56:49;;;;;;;16.35;3.45;;;;;;;16.88;100.00;101408.91;4934609;29;20383;-72
2023/02/18 05:59:15;;;;;;;16.60;3.80;;;;;;;16.72;100.00;101396.88;4934791;29;20032;-71
2023/02/18 06:01:41;;;;;;;16.42;3.65;;;;;;;16.57;100.00;101401.84;4934855;29;20078;-71
2023/02/18 06:04:06;;;;;;;14.25;3.40;;;;;;;16.78;100.00;101401.06;4934771;29;20024;-72
2023/02/18 06:06:33;;;;;;;13.65;3.63;;;;;;;16.74;100.00;101411.94;4934549;29;20038;-72
2023/02/18 06:08:59;;;;;;;15.13;3.90;;;;;;;16.64;100.00;101404.06;4917717;29;20087;-71
2023/02/18 06:11:24;;;;;;;17.23;4.47;;;;;;;16.62;100.00;101401.63;4917386;29;20082;-71
2023/02/18 06:13:50;;;;;;;15.15;4.22;;;;;;;16.58;100.00;101408.97;4934710;29;20027;-72
2023/02/18 06:16:16;;;;;;;16.25;3.72;;;;;;;16.64;100.00;101410.38;4934532;29;20024;-71
2023/02/18 06:18:41;;;;;;;17.75;4.25;;;;;;;16.45;100.00;101407.28;4934590;29;20500;-72
2023/02/18 06:21:07;;;;;;;15.52;4.90;;;;;;;16.70;100.00;101408.25;4932077;29;20031;-73
2023/02/18 06:23:32;;;;;;;17.48;4.13;;;;;;;16.50;100.00;101400.75;4926042;29;20032;-72
2023/02/18 06:25:58;;;;;;;15.82;3.95;;;;;;;16.67;100.00;101410.84;4906093;29;20031;-72
2023/02/18 06:28:24;;;;;;;14.38;3.10;;;;;;;16.70;100.00;101419.31;4919076;29;20031;-72
2023/02/18 06:30:49;;;;;;;14.88;4.15;;;;;;;16.76;100.00;101419.88;4924928;29;20530;-72
2023/02/18 06:33:15;;;;;;;15.52;3.15;;;;;;;16.66;100.00;101421.06;4937937;29;20028;-71
2023/02/18 06:35:41;;;;;;;14.93;4.38;;;;;;;16.58;100.00;101421.94;4931248;29;20028;-71
2023/02/18 06:38:07;;;;;;;13.30;4.38;;;;;;;16.67;100.00;101433.72;4920768;29;20039;-71
2023/02/18 06:40:33;;;;;;;9.18;2.75;;;;;;;16.63;100.00;101428.09;4920458;29;20032;-71
2023/02/18 06:42:58;;;;;;;13.52;3.22;;;;;;;16.89;100.00;101443.63;4937751;29;20075;-71
2023/02/18 06:45:24;;;;;;;15.40;3.63;;;;;;;16.65;100.00;101431.31;4930670;29;20040;-71
2023/02/18 06:47:50;;;;;;;16.02;4.72;;;;;;;17.01;100.00;101440.94;4937739;29;20034;-71
2023/02/18 06:50:15;;;;;;;13.95;3.45;;;;;;;16.78;100.00;101442.44;4937575;29;20028;-71
2023/02/18 06:52:41;;;;;;;16.75;3.40;;;;;;;16.91;100.00;101449.63;4920654;29;20541;-73
2023/02/18 06:55:11;;;;;;;15.55;4.00;;;;;;;16.88;100.00;101439.25;4931614;29;20111;-72
2023/02/18 06:57:36;;;;;;;15.75;3.50;;;;;;;16.79;100.00;101446.81;4920029;29;20047;-72
2023/02/18 07:00:04;;;;;;;11.13;2.83;;;;;;;16.90;100.00;101446.03;4937457;29;20032;-72
2023/02/18 07:02:29;;;;;;;11.00;3.50;;;;;;;16.81;100.00;101450.84;4937327;29;20062;-72
2023/02/18 07:04:55;;;;;;;12.40;2.75;;;;;;;17.04;100.00;101458.75;4933117;29;20055;-72
2023/02/18 07:07:21;;;;;;;15.15;3.45;;;;;;;17.32;100.00;101461.75;4934353;29;20382;-71
2023/02/18 07:09:47;;;;;;;10.60;2.40;;;;;;;16.97;100.00;101464.81;4937175;29;20038;-72
2023/02/18 07:12:12;;;;;;;20.50;4.25;;;;;;;17.07;100.00;101467.16;4936762;29;20062;-71
2023/02/18 07:14:38;;;;;;;16.30;3.08;;;;;;;17.41;100.00;101467.97;4935240;29;20028;-71
2023/02/18 07:17:04;;;;;;;12.32;2.40;;;;;;;17.13;100.00;101468.56;4901226;29;20059;-72
2023/02/18 07:19:29;;;;;;;12.50;3.20;;;;;;;17.16;100.00;101469.88;4923741;29;20546;-72
2023/02/18 07:21:56;;;;;;;12.18;3.30;;;;;;;17.07;100.00;101480.97;4903234;29;20072;-71
2023/02/18 07:24:23;;;;;;;9.38;2.75;;;;;;;16.95;100.00;101486.44;4922419;29;20389;-72
2023/02/18 07:26:48;;;;;;;11.65;2.20;;;;;;;16.96;100.00;101479.78;4936251;29;20035;-71
2023/02/18 07:29:14;;;;;;;8.82;2.10;;;;;;;16.89;100.00;101487.78;4936567;29;20048;-71
2023/02/18 07:31:40;;;;;;;10.00;2.58;;;;;;;17.07;100.00;101485.69;4936927;29;20553;-72
2023/02/18 07:34:06;;;;;;;9.75;2.70;;;;;;;17.06;100.00;101498.69;4936741;29;20028;-72
2023/02/18 07:36:31;;;;;;;6.22;2.00;;;;;;;17.01;100.00;101504.44;4926368;29;20047;-72
2023/02/18 07:38:57;;;;;;;7.60;1.80;;;;;;;17.18;100.00;101492.41;4900781;29;20032;-72
2023/02/18 07:41:22;;;;;;;5.57;1.75;;;;;;;16.82;100.00;101482.00;4936467;29;20036;-71
2023/02/18 07:43:48;;;;;;;10.40;2.35;;;;;;;16.73;100.00;101487.59;4935428;29;20031;-73
2023/02/18 07:46:14;;;;;;;7.22;2.40;;;;;;;16.93;100.00;101494.28;4923089;29;20035;-71
2023/02/18 07:48:40;;;;;;;8.27;2.20;;;;;;;16.98;100.00;101494.03;4900590;29;20390;-72
2023/02/18 07:51:08;;;;;;;8.98;2.92;;;;;;;16.85;100.00;101493.19;4933808;29;20035;-71
2023/02/18 07:53:36;;;;;;;10.95;2.10;;;;;;;16.76;100.00;101509.00;4936704;29;20402;-72
2023/02/18 07:56:02;;;;;;;11.02;2.60;;;;;;;16.64;100.00;101512.47;4935338;29;20505;-72
2023/02/18 07:58:30;;;;;;;6.30;2.17;;;;;;;16.96;100.00;101525.91;4919329;29;20051;-71
2023/02/18 08:00:56;;;;;;;9.68;2.53;;;;;;;16.96;100.00;101542.47;4919133;29;20468;-71
2023/02/18 08:03:28;;;;;;;10.02;2.28;;;;;;;17.41;100.00;101539.78;4936328;29;20038;-72
2023/02/18 08:05:56;;;;;;;13.35;3.17;;;;;;;17.41;100.00;101535.09;4935108;29;20027;-71
2023/02/18 08:08:24;;;;;;;13.60;3.30;;;;;;;17.14;100.00;101530.94;4936119;29;20031;-71
2023/02/18 08:10:52;;;;;;;7.28;2.30;;;;;;;17.31;100.00;101537.47;4936003;29;20406;-71
2023/02/18 08:13:17;;;;;;;14.75;3.25;;;;;;;17.42;100.00;101541.41;4936035;29;20039;-74
2023/02/18 08:15:43;;;;;;;12.38;3.65;;;;;;;17.32;100.00;101547.38;4935818;29;20028;-74
2023/02/18 08:18:16;;;;;;;12.32;2.90;;;;;;;17.54;100.00;101543.41;4935690;29;20035;-71
2023/02/18 08:20:41;;;;;;;21.77;4.32;;;;;;;17.53;100.00;101536.25;4935880;29;20024;-72
2023/02/18 08:23:07;;;;;;;7.95;2.15;;;;;;;17.43;100.00;101548.53;4935931;29;20537;-71
2023/02/18 08:25:32;;;;;;;13.95;3.20;;;;;;;17.51;100.00;101544.09;4935660;29;20436;-74
2023/02/18 08:27:59;;;;;;;9.02;2.53;;;;;;;17.21;100.00;101538.66;4918774;29;20064;-72
2023/02/18 08:30:25;;;;;;;13.60;2.58;;;;;;;17.36;100.00;101548.28;4935504;29;20498;-72
2023/02/18 08:32:51;;;;;;;11.13;2.58;;;;;;;17.38;100.00;101541.28;4935819;29;20039;-71
2023/02/18 08:35:17;;;;;;;13.63;3.60;;;;;;;17.24;100.00;101553.78;4935488;29;20031;-72
2023/02/18 08:37:43;;;;;;;8.93;3.00;;;;;;;17.38;100.00;101571.69;4935665;29;20031;-71
2023/02/18 08:40:09;;;;;;;16.77;3.28;;;;;;;17.53;100.00;101569.41;4935698;29;20139;-74
2023/02/18 08:42:35;;;;;;;8.02;2.55;;;;;;;17.52;100.00;101584.38;4935642;29;20024;-75
2023/02/18 08:45:01;;;;;;;12.63;2.78;;;;;;;17.53;100.00;101586.78;4935303;29;20359;-72
2023/02/18 08:47:26;;;;;;;12.77;3.33;;;;;;;17.62;100.00;101590.31;4922190;29;20039;-73
2023/02/18 08:49:53;;;;;;;9.75;2.47;;;;;;;17.62;100.00;101604.13;4912886;29;20107;-72
2023/02/18 08:52:19;;;;;;;9.38;3.35;;;;;;;17.32;100.00;101602.59;4935201;29;20028;-71
2023/02/18 08:54:45;;;;;;;10.70;2.83;;;;;;;17.57;100.00;101598.78;4935345;29;20115;-72
2023/02/18 08:57:10;;;;;;;17.05;3.28;;;;;;;17.59;100.00;101604.78;4916595;29;20114;-73
2023/02/18 08:59:36;;;;;;;17.70;3.50;;;;;;;17.57;100.00;101609.84;4899452;29;20046;-72
2023/02/18 09:02:02;;;;;;;14.68;3.17;;;;;;;17.70;100.00;101608.78;4901820;29;20031;-73
2023/02/18 09:04:27;;;;;;;10.40;2.15;;;;;;;17.64;100.00;101599.06;4925803;29;20043;-72
2023/02/18 09:06:53;;;;;;;13.60;3.30;;;;;;;17.75;100.00;101611.31;4920785;29;20415;-72
2023/02/18 09:09:18;;;;;;;29.35;20.02;;;;;;;17.81;100.00;101616.63;4935340;29;20079;-72
2023/02/18 09:11:45;;;;;;;12.05;3.58;;;;;;;17.72;100.00;101608.44;4918110;29;20131;-74
2023/02/18 09:14:11;;;;;;;10.00;2.72;;;;;;;17.75;100.00;101618.81;4935444;29;20492;-72
2023/02/18 09:16:39;;;;;;;12.77;3.17;;;;;;;17.94;100.00;101621.88;4933666;29;20367;-72
2023/02/18 09:19:05;;;;;;;17.25;3.97;;;;;;;17.74;100.00;101606.94;4928181;29;20039;-73
2023/02/18 09:21:31;;;;;;;13.55;3.42;;;;;;;18.01;100.00;101629.63;4916244;29;20032;-72
2023/02/18 09:23:58;;;;;;;13.18;3.47;;;;;;;18.05;100.00;101624.19;4925508;29;20383;-71
2023/02/18 09:26:25;;;;;;;12.35;3.00;;;;;;;18.14;100.00;101625.72;4916264;29;20046;-72
2023/02/18 09:28:53;;;;;;;12.07;2.80;;;;;;;18.23;100.00;101634.72;4916127;29;20058;-72
2023/02/18 09:31:21;;;;;;;16.38;3.13;;;;;;;18.12;100.00;101629.97;4916083;29;20024;-71
2023/02/18 09:33:51;;;;;;;15.98;4.10;;;;;;;18.14;100.00;101630.47;4920507;29;20107;-72
2023/02/18 09:36:17;;;;;;;14.93;3.67;;;;;;;18.32;100.00;101629.09;4931976;29;20036;-72
2023/02/18 09:38:43;;;;;;;18.35;3.55;;;;;;;18.45;100.00;101627.16;4915976;29;20545;-72
2023/02/18 09:41:31;;;;;;;12.90;3.75;;;;;;;18.27;100.00;101626.53;4916077;29;20114;-72
2023/02/18 09:44:01;;;;;;;9.80;2.67;;;;;;;18.17;100.00;101621.47;4916049;29;20020;-70
2023/02/18 09:46:39;;;;;;;15.23;3.67;;;;;;;18.22;100.00;101633.13;4910545;29;20047;-71
2023/02/18 09:49:15;;;;;;;14.85;3.85;;;;;;;18.26;100.00;101634.03;4934998;29;20032;-72
2023/02/18 09:51:42;;;;;;;11.48;3.25;;;;;;;18.40;100.00;101644.78;4934877;29;20043;-72
2023/02/18 09:54:15;;;;;;;11.65;3.47;;;;;;;18.54;100.00;101644.44;4934929;29;20031;-72
2023/02/18 09:56:42;;;;;;;11.88;2.92;;;;;;;18.78;100.00;101652.78;4933939;29;20038;-71
2023/02/18 09:59:15;;;;;;;19.45;3.85;;;;;;;18.58;100.00;101654.47;4934761;29;20039;-71
2023/02/18 10:01:42;;;;;;;12.70;2.88;;;;;;;18.68;100.00;101652.44;4937885;29;20368;-72
2023/02/18 10:04:26;;;;;;;11.82;2.75;;;;;;;18.62;100.00;101656.56;4938718;29;20106;-71
2023/02/18 10:06:53;;;;;;;10.98;2.97;;;;;;;18.83;100.00;101651.75;4935072;29;20402;-73
2023/02/18 10:09:19;;;;;;;15.27;4.63;;;;;;;19.04;100.00;101657.13;4902405;29;20032;-71
2023/02/18 10:11:50;;;;;;;18.42;4.13;;;;;;;18.72;100.00;101664.44;4919183;29;20053;-71
2023/02/18 10:14:16;;;;;;;16.95;4.18;;;;;;;18.73;100.00;101655.78;4935227;29;20032;-72
2023/02/18 10:16:43;;;;;;;11.93;3.72;;;;;;;18.47;100.00;101653.31;4936686;29;20036;-72
2023/02/18 10:19:20;;;;;;;17.60;3.85;;;;;;;18.86;100.00;101662.13;4938182;29;20038;-71
2023/02/18 10:21:47;;;;;;;14.50;3.72;;;;;;;18.67;100.00;101657.19;4919628;29;20039;-72
2023/02/18 10:24:28;;;;;;;13.43;3.03;;;;;;;18.73;100.00;101666.84;4934664;29;20035;-71
2023/02/18 10:26:54;;;;;;;17.20;3.53;;;;;;;18.68;100.00;101661.56;4920473;29;20462;-71
2023/02/18 10:29:21;;;;;;;12.77;2.95;;;;;;;18.67;100.00;101659.94;4933036;29;20126;-71
2023/02/18 10:32:07;;;;;;;12.43;3.30;;;;;;;18.68;100.00;101658.00;4928989;29;20028;-74
2023/02/18 10:35:07;;;;;;;12.30;3.90;;;;;;;18.91;100.00;101672.16;4919068;29;20070;-72
2023/02/18 10:37:51;;;;;;;16.20;3.25;;;;;;;18.92;100.00;101657.97;4907698;29;20067;-71
2023/02/18 10:40:32;;;;;;;13.73;2.85;;;;;;;18.69;100.00;101665.94;4920502;29;20044;-73
2023/02/18 10:43:07;;;;;;;12.43;3.85;;;;;;;18.93;100.00;101664.31;4934091;29;20075;-71
2023/02/18 10:45:44;;;;;;;10.38;3.17;;;;;;;18.47;100.00;101656.09;4918781;29;20024;-73
2023/02/18 10:48:27;;;;;;;13.20;3.45;;;;;;;18.78;100.00;101663.06;4918532;29;20032;-72
2023/02/18 10:50:54;;;;;;;12.50;2.88;;;;;;;19.00;100.00;101659.81;4937213;29;20038;-72
2023/02/18 10:53:39;;;;;;;14.32;4.43;;;;;;;18.83;100.00;101660.06;4919600;29;20039;-75
2023/02/18 10:56:07;;;;;;;11.55;3.92;;;;;;;18.94;100.00;101657.63;4901409;29;20027;-70
2023/02/18 10:58:41;;;;;;;17.95;4.40;;;;;;;18.95;100.00;101667.53;4918469;29;20087;-70
2023/02/18 11:01:14;;;;;;;15.43;4.03;;;;;;;18.96;100.00;101649.75;4918921;29;20043;-68
2023/02/18 11:03:44;;;;;;;15.88;3.83;;;;;;;19.02;100.00;101653.91;4920554;29;20122;-68
2023/02/18 11:06:20;;;;;;;21.42;5.22;;;;;;;19.18;100.00;101648.47;4937492;29;20035;-68
2023/02/18 11:08:46;;;;;;;16.90;6.53;;;;;;;19.26;100.00;101664.94;4929191;29;20702;-68
2023/02/18 11:11:35;;;;;;;18.40;4.90;;;;;;;19.05;100.00;101659.59;4928732;29;20155;-68
2023/02/18 11:14:03;;;;;;;15.63;3.95;;;;;;;19.15;100.00;101663.03;4918776;29;20572;-68
2023/02/18 11:17:06;;;;;;;14.48;4.07;;;;;;;18.84;100.00;101668.00;4916311;29;20040;-68
2023/02/18 11:19:35;;;;;;;14.40;4.18;;;;;;;19.20;100.00;101641.44;4904910;29;20039;-69